EGXW/WTN METAR and TAF weather

Enter ICAO airport designator
Station Type Date Time Source
EGXW METAR 2018/07/21 03:50 UTC NOAA

EGXW 210350Z 28006KT CAVOK 15/13 Q1013 BLU


Station Type Date Time Source
EGXW Decoded METAR 2018/07/21 03:50 UTC NOAA

Waddington, United Kingdom (EGXW) 53-10N 000-31W 0M
Jul 20, 2018 - 11:50 PM EDT / 2018.07.21 0350 UTC
Wind: from the W (280 degrees) at 7 MPH (6 KT):0
Visibility: greater than 7 mile(s):0
Temperature: 59 F (15 C)
Dew Point: 55 F (13 C)
Relative Humidity: 87%
Pressure (altimeter): 29.91 in. Hg (1013 hPa)
ob: EGXW 210350Z 28006KT CAVOK 15/13 Q1013 BLU
cycle: 4

Station Type Date Time Source
EGXW TAF 2018/07/21 03:06 UTC NOAA

TAF TAF EGXW 210157Z 2103/2121 28005KT CAVOK


Example: see airport list